createdAt,value
2023-07-03T08:02:14.458Z,1.90
2023-07-03T08:04:41.025Z,2.50
2023-07-03T08:07:07.770Z,3.13
2023-07-03T08:09:34.533Z,2.58
2023-07-03T08:12:03.921Z,3.08
2023-07-03T08:14:30.268Z,2.80
2023-07-03T08:16:56.675Z,2.88
2023-07-03T08:19:23.238Z,3.30
2023-07-03T08:21:49.721Z,3.00
2023-07-03T08:24:16.468Z,3.47
2023-07-03T08:26:46.123Z,2.75
2023-07-03T08:29:12.531Z,2.28
2023-07-03T08:31:38.930Z,2.78
2023-07-03T08:34:05.584Z,2.40
2023-07-03T08:39:03.052Z,2.60
2023-07-03T08:41:29.920Z,2.70
2023-07-03T08:43:57.105Z,2.80
2023-07-03T08:46:32.538Z,2.38
2023-07-03T08:49:04.969Z,2.97
2023-07-03T08:51:32.078Z,2.78
2023-07-03T08:54:04.303Z,3.47
2023-07-03T08:56:33.056Z,3.13
2023-07-03T08:58:59.589Z,3.15
2023-07-03T09:01:31.736Z,3.53
2023-07-03T09:04:06.911Z,2.80
2023-07-03T09:06:53.800Z,2.10
2023-07-03T09:09:31.532Z,2.55
2023-07-03T09:12:20.978Z,2.90
2023-07-03T09:14:51.316Z,2.78
2023-07-03T09:17:17.860Z,3.33
2023-07-03T09:19:46.965Z,3.45
2023-07-03T09:22:33.574Z,2.67
2023-07-03T09:25:01.195Z,3.30
2023-07-03T09:27:28.804Z,2.85
2023-07-03T09:29:58.368Z,2.85
2023-07-03T09:32:27.771Z,3.80
2023-07-03T09:35:01.989Z,3.03
2023-07-03T09:37:28.997Z,3.13
2023-07-03T09:39:55.953Z,3.63
2023-07-03T09:42:24.127Z,3.65
2023-07-03T09:44:50.859Z,4.53
2023-07-03T09:47:23.024Z,3.80
2023-07-03T09:49:50.070Z,2.92
2023-07-03T09:52:16.831Z,2.80
2023-07-03T09:54:44.402Z,2.90
2023-07-03T09:57:40.228Z,2.67
2023-07-03T10:00:16.125Z,2.80
2023-07-03T10:07:46.149Z,3.03
2023-07-03T10:12:47.165Z,2.97
2023-07-03T10:15:22.554Z,2.90
2023-07-03T10:18:00.375Z,2.88
2023-07-03T10:20:28.758Z,3.70
2023-07-03T10:22:56.301Z,3.33
2023-07-03T10:25:25.781Z,3.22
2023-07-03T10:27:56.439Z,2.70
2023-07-03T10:30:24.779Z,3.38
2023-07-03T10:32:52.149Z,2.92
2023-07-03T10:35:18.918Z,3.00
2023-07-03T10:38:09.609Z,2.67
2023-07-03T10:40:39.160Z,2.60
2023-07-03T10:43:06.365Z,2.25
2023-07-03T10:45:35.963Z,2.38
2023-07-03T10:48:22.650Z,2.40
2023-07-03T10:50:55.050Z,2.10
2023-07-03T10:53:27.912Z,2.22
2023-07-03T10:56:00.160Z,1.98
2023-07-03T10:58:32.888Z,2.38
2023-07-03T11:00:59.289Z,2.00
2023-07-03T11:03:30.165Z,2.80
2023-07-03T11:06:05.798Z,2.38
2023-07-03T11:08:38.357Z,2.53
2023-07-03T11:11:18.924Z,2.30
2023-07-03T11:14:08.310Z,2.45
2023-07-03T11:16:58.222Z,2.65
2023-07-03T11:24:43.553Z,1.95
2023-07-03T11:30:08.206Z,1.50
2023-07-03T11:32:35.658Z,2.08
2023-07-03T11:40:30.953Z,1.92
2023-07-03T11:45:38.966Z,1.63
2023-07-03T11:48:18.324Z,1.50
2023-07-03T11:50:54.291Z,1.60
2023-07-03T11:53:46.947Z,2.25
2023-07-03T11:56:20.990Z,2.20
2023-07-03T12:01:24.342Z,1.45
2023-07-03T12:03:52.340Z,1.63
2023-07-03T12:06:37.458Z,2.42
2023-07-03T12:09:23.669Z,1.67
2023-07-03T12:12:03.962Z,2.03
2023-07-03T12:14:42.543Z,1.23
2023-07-03T12:17:27.627Z,1.40
2023-07-03T12:20:14.526Z,1.60
2023-07-03T12:22:42.756Z,2.53
2023-07-03T12:25:10.613Z,1.60
2023-07-03T12:27:38.147Z,1.73
2023-07-03T12:30:05.581Z,2.10
2023-07-03T12:32:33.188Z,1.90
2023-07-03T12:35:16.477Z,2.10
2023-07-03T12:37:47.590Z,1.70
2023-07-03T12:40:14.957Z,1.95
2023-07-03T12:42:41.464Z,1.95
2023-07-03T12:45:13.262Z,1.88
2023-07-03T12:47:39.670Z,1.65
2023-07-03T12:50:06.750Z,2.25
2023-07-03T12:52:33.980Z,2.03
2023-07-03T12:57:34.517Z,2.13
2023-07-03T13:00:01.575Z,2.13
2023-07-03T13:02:29.389Z,2.22
2023-07-03T13:05:00.843Z,2.08
2023-07-03T13:07:28.007Z,1.83
2023-07-03T13:09:55.350Z,1.63
2023-07-03T13:12:23.622Z,1.80
2023-07-03T13:15:08.966Z,2.00
2023-07-03T13:17:38.721Z,2.28
2023-07-03T13:20:22.618Z,1.90
2023-07-03T13:22:50.406Z,2.10
2023-07-03T13:25:29.018Z,2.67
2023-07-03T13:27:56.202Z,2.00
2023-07-03T13:30:24.569Z,2.05
2023-07-03T13:32:59.303Z,2.47
2023-07-03T13:35:27.913Z,2.15
2023-07-03T13:38:08.778Z,2.60
2023-07-03T13:40:35.118Z,2.00
2023-07-03T13:43:02.766Z,2.20
2023-07-03T13:45:29.125Z,2.22
2023-07-03T13:47:55.496Z,2.17
2023-07-03T13:50:21.896Z,2.83
2023-07-03T13:52:48.896Z,1.98
2023-07-03T13:55:15.387Z,1.80
2023-07-03T13:57:41.930Z,1.83
2023-07-03T14:00:09.090Z,1.73
2023-07-03T14:02:47.901Z,2.20
2023-07-03T14:05:16.289Z,2.60
2023-07-03T14:07:43.297Z,2.45
2023-07-03T14:10:09.837Z,2.72
2023-07-03T14:12:39.570Z,2.60
2023-07-03T14:15:11.848Z,1.95
2023-07-03T14:17:38.823Z,3.15
2023-07-03T14:20:06.656Z,2.60
2023-07-03T14:22:36.679Z,2.40
2023-07-03T14:25:14.478Z,2.72
2023-07-03T14:27:41.572Z,2.42
2023-07-03T14:30:11.126Z,2.88
2023-07-03T14:32:53.086Z,3.10
2023-07-03T14:35:23.256Z,2.33
2023-07-03T14:37:52.280Z,3.35
2023-07-03T14:40:19.207Z,2.53
2023-07-03T14:42:46.708Z,2.45
2023-07-03T14:45:14.731Z,2.47
2023-07-03T14:47:41.252Z,2.78
2023-07-03T14:50:08.293Z,3.25
2023-07-03T14:52:38.810Z,2.33
2023-07-03T14:55:06.587Z,2.42
2023-07-03T14:57:37.634Z,2.70
2023-07-03T15:00:04.688Z,2.67
2023-07-03T15:02:31.137Z,2.35
2023-07-03T15:04:58.777Z,2.95
2023-07-03T15:07:25.111Z,2.30
2023-07-03T15:09:51.752Z,3.13
2023-07-03T15:12:18.883Z,2.72
2023-07-03T15:14:46.026Z,2.97
2023-07-03T15:17:13.509Z,2.30
2023-07-03T15:19:40.573Z,3.20
2023-07-03T15:22:07.913Z,3.10
2023-07-03T15:24:34.284Z,3.30
2023-07-03T15:27:00.795Z,2.63
2023-07-03T15:29:27.644Z,3.30
2023-07-03T15:31:57.640Z,2.67
2023-07-03T15:34:25.354Z,3.40
2023-07-03T15:36:53.039Z,4.00
2023-07-03T15:39:22.685Z,3.25
2023-07-03T15:41:51.967Z,3.65
2023-07-03T15:44:20.451Z,4.07
2023-07-03T15:46:47.112Z,3.65
2023-07-03T15:49:13.790Z,4.25
2023-07-03T15:51:41.868Z,4.38
2023-07-03T15:54:09.078Z,3.35
2023-07-03T15:56:37.554Z,3.85
2023-07-03T15:59:04.324Z,4.25
2023-07-03T16:01:30.938Z,3.95
2023-07-03T16:03:59.152Z,3.45
2023-07-03T16:06:26.926Z,4.20
2023-07-03T16:08:56.033Z,4.25
2023-07-03T16:11:22.724Z,3.95
2023-07-03T16:13:51.083Z,4.18
2023-07-03T16:16:22.139Z,4.63
2023-07-03T16:18:49.397Z,3.60
2023-07-03T16:21:16.953Z,4.30
2023-07-03T16:23:43.869Z,3.15
2023-07-03T16:26:12.643Z,3.88
2023-07-03T16:28:40.808Z,3.22
2023-07-03T16:31:15.006Z,3.50
2023-07-03T16:33:44.301Z,3.83
2023-07-03T16:36:14.441Z,4.18
2023-07-03T16:38:45.391Z,3.50
2023-07-03T16:41:15.729Z,3.53
2023-07-03T16:43:46.802Z,3.30
2023-07-03T16:46:19.671Z,3.78
2023-07-03T16:48:47.156Z,4.85
2023-07-03T16:51:14.700Z,3.28
2023-07-03T16:53:42.050Z,3.88
2023-07-03T16:56:15.001Z,3.30
2023-07-03T16:58:43.375Z,3.85
2023-07-03T17:01:11.288Z,3.50
2023-07-03T17:03:38.373Z,2.88
2023-07-03T17:06:06.925Z,2.95
2023-07-03T17:08:33.604Z,3.40
2023-07-03T17:11:03.890Z,3.55
2023-07-03T17:13:31.201Z,3.22
2023-07-03T17:15:58.167Z,3.17
2023-07-03T17:18:25.196Z,3.42
2023-07-03T17:20:51.817Z,3.80
2023-07-03T17:23:18.693Z,4.18
2023-07-03T17:25:46.420Z,3.53
2023-07-03T17:28:18.748Z,3.65
2023-07-03T17:30:45.798Z,4.05
2023-07-03T17:33:12.401Z,3.30
2023-07-03T17:35:41.276Z,4.22
2023-07-03T17:38:10.353Z,3.90
2023-07-03T17:40:41.740Z,5.15
2023-07-03T17:43:10.388Z,3.33
2023-07-03T17:45:38.200Z,4.13
2023-07-03T17:48:06.438Z,4.40
2023-07-03T17:50:34.755Z,3.88
2023-07-03T17:53:10.878Z,3.60
2023-07-03T17:55:40.802Z,3.63
2023-07-03T17:58:09.484Z,3.63
2023-07-03T18:00:36.371Z,4.15
2023-07-03T18:03:03.030Z,3.92
2023-07-03T18:05:32.190Z,3.85
2023-07-03T18:07:58.657Z,3.78
2023-07-03T18:10:25.446Z,3.60
2023-07-03T18:12:51.887Z,4.85
2023-07-03T18:15:24.100Z,4.93
2023-07-03T18:17:55.219Z,4.60
2023-07-03T18:20:28.299Z,3.97
2023-07-03T18:22:57.582Z,3.90
2023-07-03T18:25:24.684Z,3.88
2023-07-03T18:33:35.369Z,5.28
2023-07-03T18:36:12.530Z,4.13
2023-07-03T18:38:40.453Z,5.45
2023-07-03T18:41:19.117Z,3.88
2023-07-03T18:46:30.476Z,4.75
2023-07-03T18:51:50.869Z,4.47
2023-07-03T18:57:04.026Z,4.78
2023-07-03T18:59:39.430Z,5.93
2023-07-03T19:02:11.305Z,4.43
2023-07-03T19:04:39.183Z,4.95
2023-07-03T19:07:06.623Z,4.65
2023-07-03T19:09:33.007Z,4.32
2023-07-03T19:12:00.884Z,5.90
2023-07-03T19:14:27.296Z,6.45
2023-07-03T19:16:55.927Z,7.57
2023-07-03T19:19:22.551Z,6.38
2023-07-03T19:21:50.921Z,8.15
2023-07-03T19:24:18.556Z,7.47
2023-07-03T19:26:47.388Z,7.82
2023-07-03T19:29:15.306Z,8.63
2023-07-03T19:31:44.951Z,8.18
2023-07-03T19:34:15.753Z,9.82
2023-07-03T19:36:42.307Z,7.20
2023-07-03T19:39:10.906Z,5.97
2023-07-03T19:41:42.736Z,6.50
2023-07-03T19:44:09.150Z,6.00
2023-07-03T19:46:37.512Z,4.43
2023-07-03T19:49:04.038Z,5.00
2023-07-03T19:51:30.855Z,4.32
2023-07-03T19:53:59.838Z,4.65
2023-07-03T19:56:28.376Z,5.20
2023-07-03T19:58:55.744Z,5.53
2023-07-03T20:01:26.574Z,6.88
2023-07-03T20:03:53.099Z,6.55
2023-07-03T20:06:29.825Z,8.77
2023-07-03T20:08:56.655Z,8.60
2023-07-03T20:11:28.283Z,9.30
2023-07-03T20:13:58.435Z,13.27
2023-07-03T20:16:25.176Z,14.13
2023-07-03T20:19:10.774Z,19.15
2023-07-03T20:21:38.263Z,15.80
2023-07-03T20:24:05.288Z,24.52
2023-07-03T20:26:34.623Z,19.23
2023-07-03T20:29:02.204Z,18.23
2023-07-03T20:31:31.008Z,18.58
2023-07-03T20:33:58.425Z,15.32
2023-07-03T20:36:27.140Z,16.27
2023-07-03T20:38:54.582Z,12.95
2023-07-03T20:41:21.040Z,14.05
2023-07-03T20:43:47.475Z,14.85
2023-07-03T20:46:14.573Z,14.50
2023-07-03T20:48:42.699Z,14.25
2023-07-03T20:51:14.369Z,18.27
2023-07-03T20:54:02.681Z,15.38
2023-07-03T20:56:30.461Z,13.07
2023-07-03T20:59:00.144Z,14.13
2023-07-03T21:01:27.843Z,6.03
2023-07-03T21:03:55.237Z,8.25
2023-07-03T21:06:22.648Z,8.02
2023-07-03T21:08:50.836Z,5.43
2023-07-03T21:11:18.757Z,8.57
2023-07-03T21:13:46.521Z,5.43
2023-07-03T21:16:14.651Z,7.05
2023-07-03T21:18:42.654Z,6.70
2023-07-03T21:21:22.215Z,7.95
2023-07-03T21:23:50.851Z,6.47
2023-07-03T21:26:18.888Z,5.63
2023-07-03T21:28:46.039Z,8.45
2023-07-03T21:31:14.068Z,12.05
2023-07-03T21:33:43.455Z,9.13
2023-07-03T21:36:12.030Z,6.68
2023-07-03T21:38:39.343Z,7.57
2023-07-03T21:41:07.488Z,11.88
2023-07-03T21:43:35.979Z,12.32
2023-07-03T21:46:06.398Z,12.38
2023-07-03T21:48:33.140Z,14.80
2023-07-03T21:50:59.506Z,20.83
2023-07-03T21:53:26.061Z,20.00
2023-07-03T21:55:53.275Z,24.13
2023-07-03T21:58:20.093Z,26.55
2023-07-03T22:00:49.773Z,28.33
2023-07-03T22:03:16.549Z,37.83
2023-07-03T22:05:42.930Z,44.25
2023-07-03T22:08:09.420Z,39.85
2023-07-03T22:10:35.749Z,41.80
2023-07-03T22:13:02.212Z,31.92
2023-07-03T22:15:28.603Z,34.92
2023-07-03T22:17:54.973Z,32.13
2023-07-03T22:20:21.356Z,25.02
2023-07-03T22:22:49.070Z,27.83
2023-07-03T22:25:15.447Z,26.30
2023-07-03T22:27:41.844Z,27.67
2023-07-03T22:30:08.567Z,27.10
2023-07-03T22:32:34.978Z,27.88
2023-07-03T22:35:01.362Z,26.77
2023-07-03T22:37:27.768Z,31.95
2023-07-03T22:39:54.128Z,24.40
2023-07-03T22:42:20.495Z,23.95
2023-07-03T22:44:47.374Z,19.75
2023-07-03T22:47:14.185Z,22.45
2023-07-03T22:49:40.637Z,29.67
2023-07-03T22:52:07.762Z,33.42
2023-07-03T22:54:34.239Z,33.47
2023-07-03T22:57:01.901Z,38.17
2023-07-03T22:59:28.407Z,35.83
2023-07-03T23:01:55.310Z,35.58
2023-07-03T23:04:21.821Z,39.08
2023-07-03T23:06:48.485Z,36.25
2023-07-03T23:09:15.440Z,36.20
2023-07-03T23:11:41.936Z,32.17
2023-07-03T23:14:08.319Z,39.08
2023-07-03T23:16:35.068Z,48.83
2023-07-03T23:19:01.484Z,44.03
2023-07-03T23:21:28.103Z,41.78
2023-07-03T23:23:55.969Z,39.70
2023-07-03T23:26:25.533Z,41.30
2023-07-03T23:28:52.283Z,37.88
2023-07-03T23:31:18.817Z,33.65
2023-07-03T23:33:49.587Z,30.38
2023-07-03T23:36:16.903Z,28.08
2023-07-03T23:38:43.308Z,32.20
2023-07-03T23:41:10.138Z,40.63
2023-07-03T23:43:39.405Z,39.45
2023-07-03T23:46:10.513Z,47.47
2023-07-03T23:48:37.971Z,46.42
2023-07-03T23:51:05.645Z,49.38
2023-07-03T23:53:35.952Z,54.25
2023-07-03T23:56:05.648Z,62.13
2023-07-03T23:58:33.551Z,66.07
